Time;durP1;ratioP1;P1;durP2;ratioP2;P2;SDS_P1;SDS_P2;PMS_P1;PMS_P2;Temp;Humidity;BMP_temperature;BMP_pressure;BME280_temperature;BME280_humidity;BME280_pressure;Samples;Min_cycle;Max_cycle;Signal;HPM_P1;HPM_P2
2023/08/10 00:02:35;;;;;;;6.00;3.58;;;;;;;;;;5009390;28;20050;-78
2023/08/10 00:05:21;;;;;;;8.23;4.13;;;;;;;;;;5007291;28;20041;-77
2023/08/10 00:08:07;;;;;;;4.72;3.85;;;;;;;;;;5008634;28;20042;-78
2023/08/10 00:10:52;;;;;;;6.65;4.05;;;;;;;;;;5009144;28;20046;-80
2023/08/10 00:13:38;;;;;;;6.55;4.10;;;;;;;;;;5008466;28;20038;-78
2023/08/10 00:16:23;;;;;;;5.25;4.20;;;;;;;;;;5008462;28;20058;-78
2023/08/10 00:19:09;;;;;;;6.03;4.45;;;;;;;;;;5008756;28;20501;-77
2023/08/10 00:21:54;;;;;;;8.57;3.83;;;;;;;;;;5008492;28;20042;-76
2023/08/10 00:24:40;;;;;;;6.05;4.10;;;;;;;;;;5009030;28;20412;-77
2023/08/10 00:27:26;;;;;;;4.88;3.80;;;;;;;;;;5008440;28;20054;-76
2023/08/10 00:30:11;;;;;;;8.65;4.13;;;;;;;;;;4999771;28;20046;-78
2023/08/10 00:32:57;;;;;;;6.15;4.00;;;;;;;;;;5008163;28;20042;-77
2023/08/10 00:35:43;;;;;;;5.53;4.10;;;;;;;;;;5008195;28;20037;-76
2023/08/10 00:38:28;;;;;;;5.53;4.13;;;;;;;;;;5000636;28;20497;-76
2023/08/10 00:41:14;;;;;;;5.32;4.07;;;;;;;;;;5007242;28;20050;-78
2023/08/10 00:43:59;;;;;;;4.90;3.92;;;;;;;;;;5006302;28;20485;-77
2023/08/10 00:46:45;;;;;;;6.40;3.80;;;;;;;;;;5001011;28;20053;-77
2023/08/10 00:49:31;;;;;;;7.55;4.05;;;;;;;;;;5007577;28;20045;-81
2023/08/10 00:52:16;;;;;;;7.05;4.00;;;;;;;;;;5007771;28;20038;-79
2023/08/10 00:55:02;;;;;;;5.68;3.58;;;;;;;;;;5007379;28;20493;-76
2023/08/10 00:57:47;;;;;;;5.40;3.90;;;;;;;;;;5012696;28;20046;-78
2023/08/10 01:00:34;;;;;;;5.07;3.95;;;;;;;;;;5007312;28;20054;-79
2023/08/10 01:03:19;;;;;;;5.20;3.50;;;;;;;;;;5006261;28;20053;-78
2023/08/10 01:06:43;;;;;;;4.93;3.53;;;;;;;;;;5010461;28;20038;-76
2023/08/10 01:10:18;;;;;;;4.88;3.65;;;;;;;;;;4972504;28;20046;-77
2023/08/10 01:13:23;;;;;;;4.28;3.72;;;;;;;;;;5016867;28;20046;-79
2023/08/10 01:16:10;;;;;;;4.30;3.60;;;;;;;;;;5017095;28;20057;-76
2023/08/10 01:18:57;;;;;;;4.10;3.60;;;;;;;;;;5001106;28;20042;-77
2023/08/10 01:22:02;;;;;;;5.32;3.60;;;;;;;;;;4999128;28;20057;-77
2023/08/10 01:25:04;;;;;;;5.55;3.65;;;;;;;;;;5005867;28;20042;-78
2023/08/10 01:27:49;;;;;;;4.78;3.65;;;;;;;;;;5005152;28;20038;-78
2023/08/10 01:30:35;;;;;;;5.28;3.70;;;;;;;;;;4990596;28;20049;-77
2023/08/10 01:33:20;;;;;;;5.47;3.72;;;;;;;;;;4996524;28;20581;-78
2023/08/10 01:36:05;;;;;;;5.53;3.80;;;;;;;;;;4996562;28;20042;-78
2023/08/10 01:38:51;;;;;;;3.65;3.35;;;;;;;;;;4996903;28;20042;-78
2023/08/10 01:41:36;;;;;;;8.00;3.67;;;;;;;;;;5004557;28;20210;-78
2023/08/10 01:44:23;;;;;;;6.25;3.58;;;;;;;;;;4996216;28;20046;-78
2023/08/10 01:47:19;;;;;;;6.30;3.88;;;;;;;;;;4997202;28;20046;-77
2023/08/10 01:50:08;;;;;;;6.97;3.47;;;;;;;;;;5006277;28;20057;-78
2023/08/10 01:53:06;;;;;;;6.88;3.40;;;;;;;;;;5009098;28;20045;-78
2023/08/10 01:55:52;;;;;;;4.90;3.75;;;;;;;;;;5003137;28;20046;-78
2023/08/10 01:58:37;;;;;;;4.75;3.67;;;;;;;;;;4994324;28;20042;-76
2023/08/10 02:01:23;;;;;;;8.88;3.78;;;;;;;;;;5003844;28;20050;-77
2023/08/10 02:04:08;;;;;;;5.47;3.63;;;;;;;;;;5009799;28;20565;-78
2023/08/10 02:06:54;;;;;;;8.43;3.53;;;;;;;;;;5009733;28;20058;-78
2023/08/10 02:09:40;;;;;;;4.35;3.70;;;;;;;;;;5005597;28;20038;-77
2023/08/10 02:12:25;;;;;;;3.83;3.45;;;;;;;;;;4995952;28;20045;-77
2023/08/10 02:15:12;;;;;;;3.72;3.42;;;;;;;;;;5005009;28;20492;-77
2023/08/10 02:17:57;;;;;;;6.57;5.10;;;;;;;;;;5004684;28;20046;-77
2023/08/10 02:20:43;;;;;;;8.15;4.57;;;;;;;;;;5003504;28;20042;-77
2023/08/10 02:23:29;;;;;;;4.47;3.72;;;;;;;;;;5010135;28;20057;-78
2023/08/10 02:26:14;;;;;;;5.28;3.72;;;;;;;;;;5005430;28;20045;-78
2023/08/10 02:29:00;;;;;;;23.45;17.05;;;;;;;;;;5005240;28;20045;-78
2023/08/10 02:31:46;;;;;;;7.72;4.82;;;;;;;;;;4997164;28;20050;-78
2023/08/10 02:34:32;;;;;;;14.23;5.03;;;;;;;;;;4990193;28;20045;-77
2023/08/10 02:37:17;;;;;;;7.68;4.72;;;;;;;;;;5004675;28;20065;-78
2023/08/10 02:40:04;;;;;;;8.48;4.57;;;;;;;;;;4997140;28;20050;-78
2023/08/10 02:42:51;;;;;;;7.40;5.00;;;;;;;;;;5004576;28;20054;-80
2023/08/10 02:45:36;;;;;;;13.93;6.78;;;;;;;;;;5005165;28;20046;-77
2023/08/10 02:48:22;;;;;;;12.35;9.73;;;;;;;;;;5005075;28;20466;-78
2023/08/10 02:51:07;;;;;;;11.98;9.80;;;;;;;;;;5004658;28;20049;-76
2023/08/10 02:53:53;;;;;;;10.73;8.48;;;;;;;;;;5004926;28;20038;-78
2023/08/10 02:56:38;;;;;;;7.22;5.78;;;;;;;;;;4996707;28;20405;-78
2023/08/10 02:59:24;;;;;;;8.05;4.97;;;;;;;;;;4995476;28;20080;-77
2023/08/10 03:02:09;;;;;;;6.63;4.63;;;;;;;;;;4990873;28;20042;-78
2023/08/10 03:04:55;;;;;;;7.60;5.10;;;;;;;;;;5007944;28;20042;-79
2023/08/10 03:07:40;;;;;;;5.88;4.55;;;;;;;;;;5001302;28;20042;-77
2023/08/10 03:10:26;;;;;;;5.60;4.82;;;;;;;;;;5001639;28;20049;-78
2023/08/10 03:13:12;;;;;;;5.72;4.22;;;;;;;;;;5010070;28;20041;-78
2023/08/10 03:15:58;;;;;;;7.97;3.78;;;;;;;;;;5009703;28;20050;-79
2023/08/10 03:18:44;;;;;;;7.60;4.05;;;;;;;;;;5018849;28;20464;-78
2023/08/10 03:21:30;;;;;;;7.88;3.75;;;;;;;;;;5005976;28;20045;-77
2023/08/10 03:24:15;;;;;;;8.15;4.00;;;;;;;;;;5005048;28;20041;-78
2023/08/10 03:27:01;;;;;;;7.63;3.72;;;;;;;;;;5013870;28;20042;-76
2023/08/10 03:29:46;;;;;;;5.70;4.20;;;;;;;;;;5005089;28;20085;-79
2023/08/10 03:32:32;;;;;;;5.38;4.25;;;;;;;;;;5005035;28;20042;-77
2023/08/10 03:35:17;;;;;;;5.68;3.85;;;;;;;;;;5013669;28;20037;-78
2023/08/10 03:38:03;;;;;;;4.57;3.80;;;;;;;;;;5004249;28;20034;-79
2023/08/10 03:40:49;;;;;;;7.03;4.18;;;;;;;;;;5013754;28;20038;-77
2023/08/10 03:43:34;;;;;;;5.53;3.95;;;;;;;;;;5005557;28;21843;-78
2023/08/10 03:46:20;;;;;;;6.88;4.28;;;;;;;;;;4997906;28;20033;-77
2023/08/10 03:49:05;;;;;;;6.60;3.60;;;;;;;;;;5005447;28;20042;-77
2023/08/10 03:51:51;;;;;;;7.47;4.28;;;;;;;;;;5004332;28;20049;-76
2023/08/10 03:54:37;;;;;;;4.18;3.72;;;;;;;;;;5005347;28;20034;-77
2023/08/10 03:57:23;;;;;;;4.05;3.67;;;;;;;;;;5004786;28;20041;-78
2023/08/10 04:00:10;;;;;;;6.45;3.88;;;;;;;;;;5013836;28;20061;-79
2023/08/10 04:03:05;;;;;;;8.93;4.85;;;;;;;;;;5004959;28;20041;-77
2023/08/10 04:05:51;;;;;;;6.10;4.18;;;;;;;;;;5018391;28;20042;-76
2023/08/10 04:08:37;;;;;;;10.65;4.57;;;;;;;;;;5013317;28;20500;-78
2023/08/10 04:11:24;;;;;;;7.15;4.38;;;;;;;;;;5012339;28;20038;-78
2023/08/10 04:14:10;;;;;;;7.63;4.20;;;;;;;;;;5018648;28;20046;-78
2023/08/10 04:16:56;;;;;;;5.43;4.13;;;;;;;;;;5001164;28;20038;-76
2023/08/10 04:19:42;;;;;;;6.88;4.22;;;;;;;;;;5011886;28;20037;-78
2023/08/10 04:22:28;;;;;;;11.40;4.50;;;;;;;;;;5012490;28;20041;-79
2023/08/10 04:25:13;;;;;;;7.65;4.55;;;;;;;;;;5012473;28;20058;-78
2023/08/10 04:27:58;;;;;;;9.20;4.38;;;;;;;;;;5010432;28;20050;-76
2023/08/10 04:30:44;;;;;;;12.48;4.65;;;;;;;;;;5012431;28;20038;-77
2023/08/10 04:33:31;;;;;;;10.05;4.43;;;;;;;;;;5012394;28;20050;-80
2023/08/10 04:36:17;;;;;;;11.27;4.32;;;;;;;;;;5012621;28;20046;-78
2023/08/10 04:39:02;;;;;;;8.65;4.57;;;;;;;;;;5012435;28;20050;-77
2023/08/10 04:41:47;;;;;;;12.55;4.65;;;;;;;;;;5011822;28;20393;-77
2023/08/10 04:44:33;;;;;;;8.55;4.53;;;;;;;;;;5012445;28;20038;-79
2023/08/10 04:47:19;;;;;;;9.93;4.90;;;;;;;;;;5011759;28;20057;-78
2023/08/10 04:50:05;;;;;;;7.70;4.45;;;;;;;;;;5012177;28;20481;-81
2023/08/10 04:52:50;;;;;;;11.27;4.63;;;;;;;;;;5012264;28;20042;-78
2023/08/10 04:55:35;;;;;;;6.45;4.38;;;;;;;;;;5011925;28;20489;-79
2023/08/10 04:58:21;;;;;;;6.22;4.15;;;;;;;;;;5011977;28;20038;-77
2023/08/10 05:01:06;;;;;;;9.95;4.70;;;;;;;;;;4996851;28;20054;-77
2023/08/10 05:03:51;;;;;;;8.65;3.75;;;;;;;;;;5011776;28;20057;-77
2023/08/10 05:06:37;;;;;;;10.15;4.97;;;;;;;;;;5011040;28;20038;-79
2023/08/10 05:09:23;;;;;;;8.10;4.28;;;;;;;;;;5010808;28;20050;-78
2023/08/10 05:12:09;;;;;;;5.78;4.05;;;;;;;;;;5010376;28;20034;-77
2023/08/10 05:14:55;;;;;;;6.95;4.00;;;;;;;;;;5010956;28;20038;-77
2023/08/10 05:17:41;;;;;;;15.93;4.50;;;;;;;;;;5010749;28;20038;-78
2023/08/10 05:20:27;;;;;;;8.75;4.50;;;;;;;;;;5010756;28;20477;-78
2023/08/10 05:23:12;;;;;;;9.85;4.28;;;;;;;;;;5010481;28;20054;-77
2023/08/10 05:25:58;;;;;;;6.05;3.95;;;;;;;;;;5010139;28;20041;-77
2023/08/10 05:28:43;;;;;;;5.90;3.72;;;;;;;;;;5010298;28;20034;-78
2023/08/10 05:31:29;;;;;;;7.88;5.45;;;;;;;;;;5009339;28;20485;-77
2023/08/10 05:34:15;;;;;;;10.65;4.85;;;;;;;;;;5010529;28;20397;-78
2023/08/10 05:37:00;;;;;;;9.38;5.45;;;;;;;;;;5010059;28;20505;-82
2023/08/10 05:39:46;;;;;;;9.65;5.47;;;;;;;;;;5009036;28;20045;-78
2023/08/10 05:42:31;;;;;;;8.40;5.20;;;;;;;;;;5004630;28;20038;-78
2023/08/10 05:45:20;;;;;;;8.70;4.90;;;;;;;;;;5006101;28;20054;-79
2023/08/10 05:48:11;;;;;;;14.18;5.85;;;;;;;;;;5005869;28;20053;-77
2023/08/10 05:50:56;;;;;;;7.03;5.15;;;;;;;;;;5004856;28;20045;-77
2023/08/10 05:53:42;;;;;;;7.63;5.00;;;;;;;;;;4991007;28;20037;-79
2023/08/10 05:56:27;;;;;;;10.98;5.50;;;;;;;;;;5005907;28;20041;-77
2023/08/10 05:59:13;;;;;;;18.92;9.90;;;;;;;;;;5004857;28;20046;-79
2023/08/10 06:01:59;;;;;;;12.98;8.35;;;;;;;;;;5005968;28;20041;-79
2023/08/10 06:04:45;;;;;;;10.95;7.38;;;;;;;;;;5004439;28;20489;-78
2023/08/10 06:07:31;;;;;;;15.95;7.50;;;;;;;;;;5006261;28;20054;-79
2023/08/10 06:10:18;;;;;;;9.77;5.80;;;;;;;;;;5006801;28;20357;-78
2023/08/10 06:13:04;;;;;;;9.65;5.93;;;;;;;;;;5005508;28;20398;-80
2023/08/10 06:15:50;;;;;;;15.60;6.43;;;;;;;;;;5030986;28;20042;-78
2023/08/10 06:18:35;;;;;;;10.77;5.70;;;;;;;;;;5009352;28;20042;-78
2023/08/10 06:21:21;;;;;;;11.13;5.50;;;;;;;;;;5023003;28;20050;-79
2023/08/10 06:24:08;;;;;;;12.55;5.85;;;;;;;;;;5014692;28;20412;-79
2023/08/10 06:26:54;;;;;;;10.98;5.78;;;;;;;;;;5026019;28;20045;-80
2023/08/10 06:29:40;;;;;;;13.50;6.55;;;;;;;;;;5016306;28;20057;-79
2023/08/10 06:32:26;;;;;;;13.02;6.40;;;;;;;;;;5022365;28;20508;-78
2023/08/10 06:35:12;;;;;;;14.90;6.00;;;;;;;;;;5025128;28;20037;-77
2023/08/10 06:37:57;;;;;;;10.88;5.25;;;;;;;;;;5010196;28;20408;-79
2023/08/10 06:40:42;;;;;;;10.85;5.03;;;;;;;;;;5024262;28;20049;-80
2023/08/10 06:43:28;;;;;;;7.32;4.88;;;;;;;;;;5024351;28;20049;-80
2023/08/10 06:46:14;;;;;;;14.10;5.20;;;;;;;;;;5030298;28;20513;-81
2023/08/10 06:49:00;;;;;;;8.65;4.65;;;;;;;;;;5016936;28;20053;-79
2023/08/10 06:51:45;;;;;;;9.65;5.25;;;;;;;;;;5023345;28;20053;-79
2023/08/10 06:54:31;;;;;;;12.02;5.57;;;;;;;;;;5024825;28;20472;-80
2023/08/10 06:57:16;;;;;;;7.43;4.63;;;;;;;;;;5009855;28;20427;-77
2023/08/10 07:00:06;;;;;;;7.18;4.13;;;;;;;;;;5019245;28;20046;-77
2023/08/10 07:02:54;;;;;;;10.77;4.68;;;;;;;;;;5025948;28;20053;-79
2023/08/10 07:05:42;;;;;;;9.38;4.20;;;;;;;;;;5025056;28;20041;-78
2023/08/10 07:08:26;;;;;;;9.02;4.55;;;;;;;;;;5024603;28;20053;-78
2023/08/10 07:11:12;;;;;;;8.88;4.80;;;;;;;;;;5025089;28;20404;-78
2023/08/10 07:13:58;;;;;;;8.57;4.63;;;;;;;;;;5016027;28;20042;-78
2023/08/10 07:16:43;;;;;;;5.78;3.78;;;;;;;;;;5024952;28;20045;-76
2023/08/10 07:19:28;;;;;;;8.95;4.10;;;;;;;;;;5009140;28;20489;-77
2023/08/10 07:22:13;;;;;;;9.85;5.20;;;;;;;;;;5024191;28;20049;-78
2023/08/10 07:25:08;;;;;;;11.00;5.80;;;;;;;;;;5019346;28;20057;-80
2023/08/10 07:27:54;;;;;;;12.88;5.47;;;;;;;;;;5021880;28;20045;-78
2023/08/10 07:30:39;;;;;;;6.85;4.63;;;;;;;;;;5022925;28;20083;-79
2023/08/10 07:33:25;;;;;;;7.50;4.53;;;;;;;;;;5020886;28;20046;-77
2023/08/10 07:36:10;;;;;;;6.43;4.47;;;;;;;;;;5021513;28;20045;-79
2023/08/10 07:39:00;;;;;;;16.58;9.27;;;;;;;;;;5022318;28;20037;-81
2023/08/10 07:41:48;;;;;;;28.15;14.55;;;;;;;;;;5023008;28;20045;-78
2023/08/10 07:44:34;;;;;;;9.35;5.57;;;;;;;;;;5023257;28;20041;-80
2023/08/10 07:47:20;;;;;;;27.88;13.68;;;;;;;;;;5024480;28;20050;-83
2023/08/10 07:50:06;;;;;;;14.80;7.57;;;;;;;;;;5023439;28;20037;-79
2023/08/10 07:52:51;;;;;;;7.13;4.38;;;;;;;;;;5020502;28;20053;-79
2023/08/10 07:55:37;;;;;;;7.50;4.35;;;;;;;;;;5023057;28;20034;-79
2023/08/10 07:58:22;;;;;;;8.82;4.03;;;;;;;;;;5022096;28;20049;-81
2023/08/10 08:01:08;;;;;;;7.22;4.13;;;;;;;;;;5024564;28;20053;-78
2023/08/10 08:03:53;;;;;;;8.55;5.47;;;;;;;;;;5026195;28;20050;-78
2023/08/10 08:06:39;;;;;;;26.23;12.55;;;;;;;;;;5028021;28;20041;-79
2023/08/10 08:09:25;;;;;;;6.85;4.30;;;;;;;;;;5030563;28;20053;-77
2023/08/10 08:12:10;;;;;;;6.68;3.58;;;;;;;;;;5017640;28;20037;-79
2023/08/10 08:14:55;;;;;;;9.80;3.70;;;;;;;;;;5032763;28;20045;-80
2023/08/10 08:18:19;;;;;;;6.80;3.88;;;;;;;;;;5030863;28;20053;-80
2023/08/10 08:21:05;;;;;;;11.07;6.28;;;;;;;;;;5032497;28;20049;-79
2023/08/10 08:23:53;;;;;;;10.95;4.88;;;;;;;;;;5032637;28;20041;-77
2023/08/10 08:26:40;;;;;;;4.72;3.33;;;;;;;;;;5024420;28;20045;-77
2023/08/10 08:29:26;;;;;;;6.55;3.40;;;;;;;;;;5032677;28;20045;-81
2023/08/10 09:08:18;;;;;;;12.15;3.75;;;;;;;;;;5037793;28;20045;-79
2023/08/10 09:11:04;;;;;;;5.30;4.00;;;;;;;;;;5030480;28;20037;-80
2023/08/10 09:14:06;;;;;;;4.57;3.03;;;;;;;;;;5030649;28;20049;-77
2023/08/10 09:16:51;;;;;;;9.40;3.53;;;;;;;;;;5023818;28;20465;-78
2023/08/10 09:19:38;;;;;;;6.28;2.88;;;;;;;;;;5031105;28;20037;-77
2023/08/10 09:22:37;;;;;;;7.60;3.22;;;;;;;;;;5023016;28;20136;-79
2023/08/10 09:25:24;;;;;;;9.77;3.50;;;;;;;;;;5031407;28;20037;-80
2023/08/10 09:28:12;;;;;;;7.05;2.70;;;;;;;;;;5022732;28;20057;-80
2023/08/10 09:31:01;;;;;;;6.88;3.03;;;;;;;;;;5029391;28;20048;-80
2023/08/10 09:33:53;;;;;;;6.68;2.97;;;;;;;;;;5012795;28;20041;-78
2023/08/10 09:36:38;;;;;;;2.67;2.17;;;;;;;;;;5027365;28;20037;-79
2023/08/10 09:39:24;;;;;;;2.97;2.38;;;;;;;;;;5028296;28;20037;-79
2023/08/10 09:42:09;;;;;;;6.75;2.90;;;;;;;;;;5020447;28;20033;-79
2023/08/10 09:44:54;;;;;;;6.13;2.97;;;;;;;;;;5027887;28;20041;-78
2023/08/10 09:47:41;;;;;;;7.72;3.15;;;;;;;;;;5024037;28;20057;-78
2023/08/10 09:50:33;;;;;;;3.40;2.85;;;;;;;;;;5031284;28;20476;-77
2023/08/10 09:53:19;;;;;;;4.38;2.90;;;;;;;;;;5025891;28;20045;-78
2023/08/10 09:56:07;;;;;;;5.32;3.13;;;;;;;;;;5024355;28;20049;-78
2023/08/10 09:58:53;;;;;;;4.35;2.80;;;;;;;;;;5024864;28;20045;-79
2023/08/10 10:01:39;;;;;;;8.82;2.75;;;;;;;;;;5024737;28;20041;-79
2023/08/10 10:04:26;;;;;;;4.60;2.80;;;;;;;;;;5025720;28;20053;-83
2023/08/10 10:07:12;;;;;;;6.50;3.63;;;;;;;;;;5030951;28;20049;-80
2023/08/10 10:10:00;;;;;;;3.58;2.55;;;;;;;;;;5025956;28;20496;-79
2023/08/10 10:12:49;;;;;;;4.00;2.30;;;;;;;;;;5026312;28;20033;-82
2023/08/10 10:15:36;;;;;;;5.30;2.63;;;;;;;;;;5031201;28;20476;-79
2023/08/10 10:18:24;;;;;;;5.80;2.70;;;;;;;;;;5024202;28;20029;-78
2023/08/10 10:21:10;;;;;;;11.25;2.92;;;;;;;;;;5031860;28;20049;-77
2023/08/10 10:24:01;;;;;;;4.95;2.60;;;;;;;;;;5017417;28;20045;-78
2023/08/10 10:26:59;;;;;;;4.70;2.25;;;;;;;;;;5025423;28;20033;-78
2023/08/10 10:29:55;;;;;;;3.25;2.03;;;;;;;;;;5026353;28;20049;-80
2023/08/10 10:32:47;;;;;;;3.55;2.50;;;;;;;;;;5026259;28;20046;-78
2023/08/10 10:35:33;;;;;;;5.80;3.35;;;;;;;;;;5014073;28;20041;-79
2023/08/10 10:38:20;;;;;;;4.10;2.40;;;;;;;;;;5025916;28;20492;-76
2023/08/10 10:41:12;;;;;;;3.95;2.67;;;;;;;;;;5024984;28;20049;-81
2023/08/10 10:43:59;;;;;;;3.70;2.45;;;;;;;;;;5024623;28;20045;-79
2023/08/10 10:46:44;;;;;;;2.90;1.90;;;;;;;;;;5025933;28;20397;-80
2023/08/10 10:49:29;;;;;;;7.00;2.60;;;;;;;;;;5025587;28;20045;-78
2023/08/10 10:52:35;;;;;;;3.72;2.30;;;;;;;;;;5017351;28;20049;-78
2023/08/10 10:55:22;;;;;;;4.47;2.50;;;;;;;;;;5024500;28;20323;-78
2023/08/10 10:58:09;;;;;;;3.88;2.20;;;;;;;;;;5025182;28;20041;-79
2023/08/10 11:00:55;;;;;;;2.60;2.10;;;;;;;;;;5025354;28;20400;-79
2023/08/10 11:03:40;;;;;;;9.73;3.00;;;;;;;;;;5025649;28;20038;-79
2023/08/10 11:06:26;;;;;;;4.20;2.30;;;;;;;;;;5024481;28;20041;-81
2023/08/10 11:09:13;;;;;;;6.78;2.47;;;;;;;;;;5024834;28;20045;-79
2023/08/10 11:12:00;;;;;;;5.43;2.70;;;;;;;;;;5025778;28;20049;-79
2023/08/10 11:14:45;;;;;;;6.32;3.30;;;;;;;;;;5025014;28;20037;-80
2023/08/10 11:17:31;;;;;;;6.10;2.65;;;;;;;;;;5003945;28;20468;-77
2023/08/10 11:20:18;;;;;;;5.40;2.67;;;;;;;;;;5017044;28;20265;-77
2023/08/10 11:23:03;;;;;;;5.57;2.53;;;;;;;;;;5023915;28;20065;-79
2023/08/10 11:25:51;;;;;;;5.60;2.78;;;;;;;;;;5024748;28;20037;-80
2023/08/10 11:28:37;;;;;;;7.80;2.80;;;;;;;;;;5025765;28;20049;-79
2023/08/10 11:31:22;;;;;;;4.72;2.50;;;;;;;;;;5025799;28;20038;-78
2023/08/10 11:34:26;;;;;;;4.82;2.53;;;;;;;;;;5017638;28;20037;-77
2023/08/10 11:37:11;;;;;;;3.53;2.70;;;;;;;;;;5026320;28;20045;-78
2023/08/10 11:40:11;;;;;;;6.32;2.72;;;;;;;;;;5027698;28;20041;-79
2023/08/10 11:43:11;;;;;;;3.97;2.30;;;;;;;;;;5014132;28;20041;-78
2023/08/10 11:45:56;;;;;;;7.53;4.00;;;;;;;;;;5014633;28;20422;-77
2023/08/10 11:48:42;;;;;;;4.90;2.90;;;;;;;;;;5028337;28;20042;-79
2023/08/10 11:51:32;;;;;;;8.43;3.10;;;;;;;;;;5029388;28;20050;-77
2023/08/10 11:54:26;;;;;;;15.05;3.08;;;;;;;;;;5028330;28;20033;-79
2023/08/10 11:57:12;;;;;;;7.68;2.55;;;;;;;;;;5028455;28;20065;-77
2023/08/10 11:59:58;;;;;;;3.92;2.20;;;;;;;;;;5028415;28;20403;-80
2023/08/10 12:03:06;;;;;;;3.75;2.30;;;;;;;;;;5021304;28;20042;-79
2023/08/10 12:05:54;;;;;;;5.47;2.58;;;;;;;;;;5027817;28;20033;-79
2023/08/10 12:08:40;;;;;;;4.70;2.20;;;;;;;;;;5027471;28;20045;-79
2023/08/10 12:11:26;;;;;;;2.58;2.08;;;;;;;;;;5028531;28;20037;-77
2023/08/10 12:14:12;;;;;;;5.45;2.30;;;;;;;;;;5028078;28;20041;-78
2023/08/10 12:16:57;;;;;;;3.53;2.15;;;;;;;;;;5012764;28;20045;-77
2023/08/10 12:19:43;;;;;;;5.22;2.40;;;;;;;;;;5027017;28;20041;-78
2023/08/10 12:22:28;;;;;;;3.10;2.08;;;;;;;;;;5026294;28;20809;-76
2023/08/10 12:25:14;;;;;;;3.83;2.50;;;;;;;;;;5026859;28;20443;-77
2023/08/10 12:28:00;;;;;;;7.07;3.22;;;;;;;;;;5027098;28;20053;-77
2023/08/10 12:30:48;;;;;;;5.82;2.70;;;;;;;;;;5026448;28;20064;-79
2023/08/10 12:33:34;;;;;;;3.15;2.50;;;;;;;;;;5012534;28;20041;-79
2023/08/10 12:36:19;;;;;;;3.35;2.20;;;;;;;;;;5027551;28;20045;-79
2023/08/10 12:39:05;;;;;;;5.55;2.50;;;;;;;;;;5018562;28;20054;-78
2023/08/10 12:41:51;;;;;;;3.38;2.38;;;;;;;;;;5013197;28;20057;-76
2023/08/10 12:44:37;;;;;;;11.38;3.63;;;;;;;;;;5018515;28;20053;-80
2023/08/10 12:47:22;;;;;;;5.90;2.78;;;;;;;;;;5025580;28;20045;-76
2023/08/10 12:50:09;;;;;;;4.90;2.10;;;;;;;;;;5024198;28;21034;-83
2023/08/10 12:52:55;;;;;;;7.00;3.03;;;;;;;;;;5025176;28;20041;-80
2023/08/10 12:55:40;;;;;;;5.15;2.47;;;;;;;;;;5025579;28;20045;-81
2023/08/10 12:58:26;;;;;;;4.03;2.30;;;;;;;;;;5025521;28;20041;-78
2023/08/10 13:01:11;;;;;;;5.70;2.40;;;;;;;;;;5024653;28;20049;-79
2023/08/10 13:03:56;;;;;;;5.80;2.80;;;;;;;;;;5025275;28;20400;-79
2023/08/10 13:07:45;;;;;;;3.70;2.58;;;;;;;;;;5028103;28;20041;-78
2023/08/10 13:10:31;;;;;;;3.80;2.10;;;;;;;;;;5030521;28;20041;-77
2023/08/10 13:13:16;;;;;;;3.28;2.10;;;;;;;;;;5034518;28;20053;-78
2023/08/10 13:16:01;;;;;;;2.30;1.80;;;;;;;;;;5037291;28;20049;-78
2023/08/10 13:18:47;;;;;;;3.95;1.52;;;;;;;;;;5036085;28;20037;-79
2023/08/10 13:21:35;;;;;;;4.05;1.80;;;;;;;;;;5037610;28;20057;-80
2023/08/10 13:24:20;;;;;;;5.88;2.67;;;;;;;;;;5037903;28;20054;-77
2023/08/10 13:27:07;;;;;;;4.93;2.10;;;;;;;;;;5036924;28;20046;-79
2023/08/10 13:29:53;;;;;;;3.83;2.05;;;;;;;;;;5037508;28;20061;-79
2023/08/10 13:32:39;;;;;;;5.38;2.42;;;;;;;;;;5033609;28;20108;-77
2023/08/10 13:35:26;;;;;;;4.60;2.28;;;;;;;;;;5030725;28;20053;-78
2023/08/10 13:38:11;;;;;;;4.47;2.60;;;;;;;;;;5023050;28;20400;-78
2023/08/10 13:40:57;;;;;;;4.00;2.30;;;;;;;;;;5030178;28;20053;-79
2023/08/10 13:43:43;;;;;;;5.65;2.65;;;;;;;;;;5030193;28;20041;-78
2023/08/10 13:46:29;;;;;;;3.97;2.40;;;;;;;;;;5031145;28;20054;-76
2023/08/10 13:49:15;;;;;;;5.07;2.60;;;;;;;;;;5031041;28;20045;-77
2023/08/10 13:52:00;;;;;;;5.55;2.47;;;;;;;;;;5030924;28;20396;-77
2023/08/10 13:54:46;;;;;;;4.85;2.63;;;;;;;;;;5030740;28;20053;-79
2023/08/10 13:57:31;;;;;;;4.53;2.25;;;;;;;;;;5029606;28;20037;-78
2023/08/10 14:00:18;;;;;;;8.20;2.75;;;;;;;;;;5029570;28;20053;-79
2023/08/10 14:03:04;;;;;;;4.18;2.70;;;;;;;;;;5022160;28;20041;-77
2023/08/10 14:05:50;;;;;;;3.33;2.25;;;;;;;;;;5030960;28;20053;-77
2023/08/10 14:08:36;;;;;;;5.85;2.55;;;;;;;;;;5029924;28;20408;-79
2023/08/10 14:11:22;;;;;;;5.28;2.60;;;;;;;;;;5030555;28;20041;-81
2023/08/10 14:14:08;;;;;;;5.43;3.85;;;;;;;;;;5029922;28;20504;-79
2023/08/10 14:16:53;;;;;;;13.63;5.55;;;;;;;;;;5029679;28;20041;-78
2023/08/10 14:19:39;;;;;;;15.65;6.22;;;;;;;;;;5030069;28;20045;-80
2023/08/10 14:22:24;;;;;;;6.80;2.97;;;;;;;;;;5029060;28;20042;-79
2023/08/10 14:25:10;;;;;;;4.82;2.42;;;;;;;;;;5027291;28;20050;-79
2023/08/10 14:27:55;;;;;;;4.13;2.78;;;;;;;;;;5030314;28;20037;-79
2023/08/10 14:30:41;;;;;;;2.80;2.30;;;;;;;;;;5029710;28;20392;-79
2023/08/10 14:33:26;;;;;;;5.65;2.40;;;;;;;;;;5021625;28;20041;-78
2023/08/10 14:36:12;;;;;;;3.70;2.60;;;;;;;;;;5021634;28;20045;-79
2023/08/10 14:38:57;;;;;;;5.15;2.80;;;;;;;;;;5030147;28;20404;-79
2023/08/10 14:41:42;;;;;;;3.60;2.35;;;;;;;;;;5029191;28;20045;-78
2023/08/10 14:44:27;;;;;;;4.13;2.40;;;;;;;;;;5025774;28;20046;-79
2023/08/10 14:47:13;;;;;;;4.78;2.67;;;;;;;;;;5025893;28;20480;-77
2023/08/10 14:49:58;;;;;;;3.65;2.20;;;;;;;;;;5024929;28;20396;-78
2023/08/10 14:52:44;;;;;;;3.33;2.08;;;;;;;;;;5025477;28;20041;-77
2023/08/10 14:55:29;;;;;;;4.03;2.13;;;;;;;;;;5023216;28;20669;-78
2023/08/10 14:58:15;;;;;;;2.92;1.95;;;;;;;;;;5027180;28;20033;-80
2023/08/10 15:01:03;;;;;;;3.58;2.03;;;;;;;;;;5028373;28;20444;-80
2023/08/10 15:03:52;;;;;;;5.72;2.10;;;;;;;;;;5027924;28;20045;-78
2023/08/10 15:06:38;;;;;;;2.53;1.95;;;;;;;;;;5028197;28;20049;-79
2023/08/10 15:09:24;;;;;;;4.18;1.95;;;;;;;;;;5021894;28;20057;-79
2023/08/10 15:12:10;;;;;;;5.60;2.00;;;;;;;;;;5024642;28;20057;-80
2023/08/10 15:14:55;;;;;;;4.82;2.20;;;;;;;;;;5028985;28;20049;-79
2023/08/10 15:17:41;;;;;;;2.45;2.08;;;;;;;;;;5028996;28;20041;-78
2023/08/10 15:20:27;;;;;;;5.20;3.00;;;;;;;;;;5029402;28;20412;-79
2023/08/10 15:23:12;;;;;;;4.75;2.75;;;;;;;;;;5029790;28;20480;-77
2023/08/10 15:25:59;;;;;;;3.53;2.30;;;;;;;;;;5029345;28;20644;-76
2023/08/10 15:28:47;;;;;;;7.25;2.35;;;;;;;;;;5029857;28;20435;-78
2023/08/10 15:31:33;;;;;;;4.57;1.90;;;;;;;;;;5026464;28;20049;-77
2023/08/10 15:34:19;;;;;;;3.95;2.33;;;;;;;;;;5028882;28;20362;-78
2023/08/10 15:37:04;;;;;;;5.22;2.40;;;;;;;;;;5029502;28;20046;-79
2023/08/10 15:39:51;;;;;;;3.72;2.67;;;;;;;;;;5028326;28;20042;-77
2023/08/10 15:42:38;;;;;;;4.07;2.50;;;;;;;;;;5026895;28;20049;-78
2023/08/10 15:45:24;;;;;;;3.22;2.10;;;;;;;;;;5028149;28;20037;-78
2023/08/10 15:48:09;;;;;;;5.10;2.13;;;;;;;;;;5028262;28;20045;-76
2023/08/10 15:50:55;;;;;;;3.88;1.88;;;;;;;;;;5027703;28;20049;-76
2023/08/10 15:53:40;;;;;;;3.47;1.90;;;;;;;;;;5028682;28;20551;-76
2023/08/10 15:56:26;;;;;;;3.58;1.55;;;;;;;;;;5028866;28;20049;-78
2023/08/10 15:59:12;;;;;;;2.55;1.80;;;;;;;;;;5028253;28;20037;-75
2023/08/10 16:01:58;;;;;;;6.38;2.30;;;;;;;;;;5028558;28;20045;-77
2023/08/10 16:04:44;;;;;;;6.68;2.30;;;;;;;;;;5028880;28;20053;-76
2023/08/10 16:07:30;;;;;;;2.72;1.90;;;;;;;;;;5028412;28;20033;-78
2023/08/10 16:10:15;;;;;;;3.22;2.10;;;;;;;;;;5028543;28;20049;-78
2023/08/10 16:13:01;;;;;;;3.30;1.98;;;;;;;;;;5029074;28;20412;-78
2023/08/10 16:15:46;;;;;;;3.45;1.90;;;;;;;;;;5028242;28;20503;-76
2023/08/10 16:18:33;;;;;;;4.30;2.08;;;;;;;;;;5027813;28;20033;-77
2023/08/10 16:21:18;;;;;;;4.30;2.13;;;;;;;;;;5027824;28;20034;-77
2023/08/10 16:24:05;;;;;;;3.17;2.03;;;;;;;;;;5028093;28;20033;-76
2023/08/10 16:26:49;;;;;;;4.40;2.15;;;;;;;;;;5019552;28;20416;-78
2023/08/10 16:29:34;;;;;;;9.27;2.88;;;;;;;;;;5028838;28;20042;-80
2023/08/10 16:32:20;;;;;;;6.82;2.97;;;;;;;;;;5028440;28;20046;-77
2023/08/10 16:35:07;;;;;;;11.25;3.13;;;;;;;;;;5014018;28;20477;-80
2023/08/10 16:37:53;;;;;;;5.32;3.05;;;;;;;;;;5028382;28;20037;-80
2023/08/10 16:40:38;;;;;;;6.40;3.10;;;;;;;;;;5028481;28;20041;-78
2023/08/10 16:43:26;;;;;;;6.53;2.92;;;;;;;;;;5027918;28;20424;-76
2023/08/10 16:46:12;;;;;;;7.78;3.00;;;;;;;;;;5027905;28;20033;-79
2023/08/10 16:48:57;;;;;;;6.03;2.95;;;;;;;;;;5019328;28;20400;-78
2023/08/10 16:51:43;;;;;;;7.80;3.20;;;;;;;;;;5028041;28;20400;-80
2023/08/10 16:54:28;;;;;;;6.47;2.95;;;;;;;;;;5028098;28;20042;-78
2023/08/10 16:57:14;;;;;;;6.45;3.13;;;;;;;;;;5027540;28;20037;-77
2023/08/10 17:00:00;;;;;;;8.45;3.30;;;;;;;;;;5027001;28;20392;-78
2023/08/10 17:02:45;;;;;;;6.90;3.08;;;;;;;;;;5026472;28;20045;-80
2023/08/10 17:05:31;;;;;;;4.90;3.30;;;;;;;;;;5027927;28;20049;-79
2023/08/10 17:08:16;;;;;;;7.30;3.42;;;;;;;;;;5026806;28;20049;-78
2023/08/10 17:11:02;;;;;;;9.07;3.30;;;;;;;;;;5027154;28;20053;-80
2023/08/10 17:13:49;;;;;;;8.07;3.28;;;;;;;;;;5027902;28;20045;-76
2023/08/10 17:16:35;;;;;;;8.30;4.55;;;;;;;;;;5027789;28;20045;-79